Time;durP1;ratioP1;P1;durP2;ratioP2;P2;SDS_P1;SDS_P2;PMS_P1;PMS_P2;Temp;Humidity;BMP_temperature;BMP_pressure;BME280_temperature;BME280_humidity;BME280_pressure;Samples;Min_cycle;Max_cycle;Signal;HPM_P1;HPM_P2
2023/03/28 00:00:05;;;;;;;40.20;19.00;;;;;;;-1.75;99.23;97657.39;105752;1261;71843;-80
2023/03/28 00:02:51;;;;;;;32.20;17.70;;;;;;;-1.82;99.25;97666.83;106088;1256;62057;-80
2023/03/28 00:05:17;;;;;;;33.90;17.40;;;;;;;-1.87;99.97;97663.16;107007;1260;63010;-80
2023/03/28 00:07:44;;;;;;;40.10;19.80;;;;;;;-1.91;100.00;97663.41;106119;1257;62072;-80
2023/03/28 00:10:11;;;;;;;32.70;16.60;;;;;;;-1.92;99.97;97663.55;106127;1257;70916;-79
2023/03/28 00:12:38;;;;;;;33.80;17.90;;;;;;;-1.94;99.87;97660.61;106177;1257;73843;-80
2023/03/28 00:15:05;;;;;;;27.60;15.00;;;;;;;-1.95;100.00;97659.55;106149;1260;62134;-79
2023/03/28 00:17:32;;;;;;;27.70;14.60;;;;;;;-1.96;100.00;97662.02;106050;1257;61920;-82
2023/03/28 00:20:03;;;;;;;23.00;12.30;;;;;;;-1.97;100.00;97664.20;106101;1260;76934;-79
2023/03/28 00:22:30;;;;;;;25.60;16.10;;;;;;;-2.00;100.00;97669.57;106056;1256;71126;-79
2023/03/28 00:24:59;;;;;;;31.40;16.60;;;;;;;-2.02;100.00;97667.91;106090;1256;71816;-80
2023/03/28 00:27:26;;;;;;;23.30;13.60;;;;;;;-2.06;100.00;97669.41;105904;1256;63253;-80
2023/03/28 00:29:52;;;;;;;29.90;15.30;;;;;;;-2.11;100.00;97664.27;106116;1257;62070;-80
2023/03/28 00:32:18;;;;;;;30.00;18.20;;;;;;;-2.21;100.00;97663.48;106080;1257;63209;-79
2023/03/28 00:34:45;;;;;;;27.60;16.40;;;;;;;-2.26;100.00;97666.35;106134;1256;62162;-79
2023/03/28 00:37:15;;;;;;;31.20;19.10;;;;;;;-2.26;100.00;97669.74;106077;1256;62090;-79
2023/03/28 00:39:48;;;;;;;29.50;18.10;;;;;;;-2.30;100.00;97667.63;106063;1257;62245;-78
2023/03/28 00:42:16;;;;;;;32.40;18.60;;;;;;;-2.29;100.00;97671.23;109040;1256;60389;-80
2023/03/28 00:44:45;;;;;;;25.40;14.80;;;;;;;-2.36;100.00;97674.36;109073;1256;73595;-79
2023/03/28 00:47:24;;;;;;;31.80;16.70;;;;;;;-2.41;100.00;97681.52;107308;1259;70094;-79
2023/03/28 00:49:53;;;;;;;34.50;18.50;;;;;;;-2.46;100.00;97681.02;106631;1260;71726;-80
2023/03/28 00:52:20;;;;;;;34.00;19.10;;;;;;;-2.48;100.00;97683.44;108171;1256;61935;-80
2023/03/28 00:54:46;;;;;;;35.10;18.90;;;;;;;-2.58;100.00;97681.60;106007;1263;61173;-79
2023/03/28 00:57:12;;;;;;;32.00;16.70;;;;;;;-2.62;100.00;97683.89;105894;1259;62063;-80
2023/03/28 00:59:39;;;;;;;28.60;16.10;;;;;;;-2.63;100.00;97681.48;105950;1256;62076;-78
2023/03/28 01:02:06;;;;;;;31.30;16.20;;;;;;;-2.66;100.00;97676.73;107683;1256;72655;-78
2023/03/28 01:04:39;;;;;;;36.30;18.30;;;;;;;-2.66;100.00;97678.48;109056;1256;59713;-80
2023/03/28 01:07:05;;;;;;;28.50;17.30;;;;;;;-2.74;100.00;97674.95;108942;1257;59698;-79
2023/03/28 01:09:32;;;;;;;24.20;14.30;;;;;;;-2.75;100.00;97677.55;108944;1256;59705;-79
2023/03/28 01:11:58;;;;;;;31.70;18.20;;;;;;;-2.78;100.00;97679.80;108950;1257;60002;-78
2023/03/28 01:14:26;;;;;;;30.00;16.60;;;;;;;-2.85;100.00;97675.14;109035;1256;59777;-79
2023/03/28 01:16:55;;;;;;;32.50;17.80;;;;;;;-2.92;100.00;97674.88;108194;1256;62067;-78
2023/03/28 01:19:43;;;;;;;;;;;;;;;-2.96;100.00;97673.54;106077;1260;61924;-79
2023/03/28 01:22:19;;;;;;;36.30;21.50;;;;;;;-3.01;100.00;97675.15;106091;1256;67970;-79
2023/03/28 01:25:13;;;;;;;29.90;16.70;;;;;;;-3.01;100.00;97671.89;106082;1257;71284;-80
2023/03/28 01:27:51;;;;;;;30.80;16.50;;;;;;;-3.03;100.00;97674.27;105897;1257;71049;-78
2023/03/28 01:30:38;;;;;;;33.90;21.60;;;;;;;-3.04;100.00;97676.76;106531;1260;62128;-78
2023/03/28 01:33:12;;;;;;;34.30;19.90;;;;;;;-3.06;100.00;97676.17;107186;1256;62028;-78
2023/03/28 01:36:04;;;;;;;32.70;18.60;;;;;;;-3.08;100.00;97674.36;105903;1256;74189;-78
2023/03/28 01:39:01;;;;;;;33.90;18.10;;;;;;;-3.11;100.00;97679.10;106091;1256;70173;-78
2023/03/28 01:41:52;;;;;;;35.00;17.10;;;;;;;-3.14;100.00;97680.08;105873;1256;72741;-78
2023/03/28 01:44:32;;;;;;;36.10;17.70;;;;;;;-3.17;100.00;97677.25;106070;1257;63037;-78
2023/03/28 01:47:00;;;;;;;32.50;20.00;;;;;;;-3.20;100.00;97679.61;106079;1260;62039;-77
2023/03/28 01:50:02;;;;;;;36.10;21.50;;;;;;;-3.23;100.00;97681.92;105723;1262;146184;-78
2023/03/28 01:52:40;;;;;;;30.30;18.10;;;;;;;-3.24;100.00;97682.42;105321;1268;72589;-78
2023/03/28 01:55:20;;;;;;;36.80;18.10;;;;;;;-3.26;100.00;97681.46;105700;1257;72572;-78
2023/03/28 01:57:51;;;;;;;38.30;17.80;;;;;;;-3.30;100.00;97680.69;105875;1257;62196;-79
2023/03/28 02:00:23;;;;;;;29.50;18.60;;;;;;;-3.32;100.00;97681.17;109062;1256;59951;-78
2023/03/28 02:02:59;;;;;;;39.50;18.80;;;;;;;-3.34;100.00;97683.44;108973;1256;74981;-78
2023/03/28 02:05:26;;;;;;;37.00;21.50;;;;;;;-3.36;100.00;97684.29;107693;1257;69236;-79
2023/03/28 02:07:53;;;;;;;37.80;20.00;;;;;;;-3.37;100.00;97687.86;105990;1259;72523;-80
2023/03/28 02:10:21;;;;;;;32.30;17.60;;;;;;;-3.45;100.00;97689.77;107506;1256;62111;-79
2023/03/28 02:12:51;;;;;;;37.90;22.00;;;;;;;-3.50;100.00;97688.48;108793;1256;59685;-79
2023/03/28 02:15:18;;;;;;;41.80;20.70;;;;;;;-3.48;100.00;97685.85;109075;1256;76554;-78
2023/03/28 02:17:48;;;;;;;28.30;17.40;;;;;;;-3.49;100.00;97684.98;108936;1256;70594;-79
2023/03/28 02:20:16;;;;;;;36.40;21.90;;;;;;;-3.47;100.00;97686.46;109062;1256;71373;-79
2023/03/28 02:22:58;;;;;;;37.70;21.80;;;;;;;-3.53;100.00;97684.59;108927;1256;59891;-79
2023/03/28 02:25:25;;;;;;;29.90;16.90;;;;;;;-3.50;100.00;97676.19;106259;1259;61983;-78
2023/03/28 02:27:54;;;;;;;35.80;14.50;;;;;;;-3.49;100.00;97671.02;106136;1260;74809;-79
2023/03/28 02:30:21;;;;;;;37.10;20.70;;;;;;;-3.52;100.00;97672.33;106083;1260;69602;-78
2023/03/28 02:32:49;;;;;;;41.00;20.20;;;;;;;-3.54;100.00;97673.46;106064;1259;71506;-79
2023/03/28 02:35:16;;;;;;;32.70;18.00;;;;;;;-3.56;100.00;97672.77;109077;1256;59772;-79
2023/03/28 02:38:01;;;;;;;30.90;16.80;;;;;;;-3.46;100.00;97667.55;109073;1256;60465;-79
2023/03/28 02:40:31;;;;;;;30.20;16.40;;;;;;;-3.44;100.00;97666.66;106111;1257;73862;-78
2023/03/28 02:43:10;;;;;;;34.30;17.80;;;;;;;-3.41;100.00;97666.02;106075;1260;70542;-79
2023/03/28 02:45:59;;;;;;;31.90;16.00;;;;;;;-3.32;100.00;97663.27;105725;1256;71401;-78
2023/03/28 02:48:46;;;;;;;36.80;18.50;;;;;;;-3.24;100.00;97662.40;106099;1260;62182;-79
2023/03/28 02:51:17;;;;;;;36.60;18.30;;;;;;;-3.17;100.00;97658.17;106114;1257;62035;-79
2023/03/28 02:54:18;;;;;;;33.70;20.20;;;;;;;-3.15;100.00;97660.59;105874;1258;74283;-78
2023/03/28 02:57:00;;;;;;;34.30;16.20;;;;;;;-3.12;100.00;97665.96;105756;1262;71309;-79
2023/03/28 02:59:47;;;;;;;39.20;17.80;;;;;;;-3.08;100.00;97661.20;105856;1256;73006;-79
2023/03/28 03:02:17;;;;;;;37.10;19.50;;;;;;;-3.18;100.00;97662.00;106027;1256;63070;-78
2023/03/28 03:04:44;;;;;;;31.80;16.60;;;;;;;-3.13;100.00;97662.58;105876;1259;62049;-78
2023/03/28 03:07:10;;;;;;;30.10;17.10;;;;;;;-3.08;100.00;97660.19;105935;1262;62154;-79
2023/03/28 03:09:37;;;;;;;36.40;19.00;;;;;;;-3.05;100.00;97657.01;105956;1258;62167;-79
2023/03/28 03:12:03;;;;;;;30.00;16.30;;;;;;;-2.97;100.00;97653.39;105919;1259;62091;-78
2023/03/28 03:14:30;;;;;;;32.50;16.20;;;;;;;-2.87;100.00;97651.39;105754;1263;63012;-79
2023/03/28 03:16:56;;;;;;;31.40;16.60;;;;;;;-2.78;100.00;97653.15;105897;1258;62867;-78
2023/03/28 03:19:23;;;;;;;47.90;20.40;;;;;;;-2.70;100.00;97651.16;105877;1259;62242;-78
2023/03/28 03:21:49;;;;;;;49.10;26.40;;;;;;;-2.68;100.00;97652.95;105851;1258;62079;-79
2023/03/28 03:24:16;;;;;;;45.70;22.30;;;;;;;-2.66;100.00;97652.21;105947;1257;62893;-78
2023/03/28 03:26:42;;;;;;;45.90;23.80;;;;;;;-2.63;100.00;97647.33;106020;1256;62162;-79
2023/03/28 03:29:09;;;;;;;38.80;19.30;;;;;;;-2.56;100.00;97650.02;105878;1256;62134;-79
2023/03/28 03:31:35;;;;;;;35.90;16.30;;;;;;;-2.49;100.00;97646.01;106078;1257;62146;-79
2023/03/28 03:34:02;;;;;;;33.00;17.00;;;;;;;-2.37;100.00;97641.79;105842;1256;62203;-79
2023/03/28 03:36:31;;;;;;;27.70;15.00;;;;;;;-2.21;100.00;97642.62;105866;1256;62146;-78
2023/03/28 03:38:58;;;;;;;26.00;11.60;;;;;;;-2.01;100.00;97644.36;106047;1256;62164;-79
2023/03/28 03:41:24;;;;;;;18.60;11.00;;;;;;;-1.78;100.00;97640.16;105876;1264;62044;-79
2023/03/28 03:43:51;;;;;;;16.70;10.00;;;;;;;-1.52;100.00;97639.90;106057;1261;60575;-78
2023/03/28 03:46:17;;;;;;;23.30;10.30;;;;;;;-1.33;100.00;97638.73;106074;1256;62040;-79
2023/03/28 03:48:44;;;;;;;14.80;9.50;;;;;;;-1.18;100.00;97636.44;106046;1260;62534;-80
2023/03/28 03:51:10;;;;;;;16.20;8.80;;;;;;;-1.05;100.00;97636.31;106043;1257;62066;-79
2023/03/28 03:53:38;;;;;;;13.00;8.20;;;;;;;-0.93;100.00;97632.34;106052;1259;62154;-78
2023/03/28 03:56:06;;;;;;;14.40;8.50;;;;;;;-0.82;100.00;97636.48;105960;1257;73172;-79
2023/03/28 03:58:32;;;;;;;17.20;9.00;;;;;;;-0.72;100.00;97636.68;105978;1260;69792;-80
2023/03/28 04:00:59;;;;;;;20.10;9.10;;;;;;;-0.66;100.00;97634.91;105941;1262;71961;-78
2023/03/28 04:03:25;;;;;;;14.80;8.20;;;;;;;-0.61;100.00;97638.43;105999;1257;62422;-80
2023/03/28 04:05:53;;;;;;;14.90;9.70;;;;;;;-0.54;100.00;97639.48;106070;1256;62175;-80
2023/03/28 04:08:20;;;;;;;13.30;8.60;;;;;;;-0.49;100.00;97641.42;106070;1256;74332;-78
2023/03/28 04:10:47;;;;;;;14.60;8.50;;;;;;;-0.45;100.00;97642.02;105838;1264;69849;-80
2023/03/28 04:13:13;;;;;;;13.70;8.30;;;;;;;-0.41;100.00;97638.35;106037;1258;62022;-79
2023/03/28 04:15:40;;;;;;;16.30;10.30;;;;;;;-0.38;100.00;97641.02;107387;1256;62015;-78
2023/03/28 04:18:07;;;;;;;39.10;19.80;;;;;;;-0.36;100.00;97639.69;105829;1263;62053;-78
2023/03/28 04:20:33;;;;;;;19.60;11.50;;;;;;;-0.33;100.00;97643.48;106250;1259;74662;-81
2023/03/28 04:23:00;;;;;;;49.40;19.90;;;;;;;-0.29;100.00;97642.95;106150;1260;69827;-79
2023/03/28 04:25:28;;;;;;;53.80;19.90;;;;;;;-0.27;100.00;97647.48;106086;1257;62175;-80
2023/03/28 04:27:55;;;;;;;94.70;39.90;;;;;;;-0.25;100.00;97652.27;106648;1256;61900;-79
2023/03/28 04:30:23;;;;;;;25.00;13.40;;;;;;;-0.24;100.00;97650.44;109081;1256;59728;-81
2023/03/28 04:32:53;;;;;;;12.80;7.60;;;;;;;-0.24;100.00;97653.65;107814;1256;75696;-80
2023/03/28 04:35:19;;;;;;;33.00;15.80;;;;;;;-0.25;100.00;97654.14;107192;1256;72469;-79
2023/03/28 04:37:46;;;;;;;19.40;10.60;;;;;;;-0.22;100.00;97656.98;106429;1256;72729;-79
2023/03/28 04:40:14;;;;;;;11.10;7.50;;;;;;;-0.19;100.00;97654.58;106435;1256;62121;-79
2023/03/28 04:42:41;;;;;;;12.20;7.60;;;;;;;-0.17;100.00;97654.80;106699;1261;62042;-79
2023/03/28 04:45:08;;;;;;;13.40;7.50;;;;;;;-0.15;100.00;97651.71;106645;1256;74777;-79
2023/03/28 04:47:36;;;;;;;13.00;7.20;;;;;;;-0.12;100.00;97655.48;106612;1256;72266;-79
2023/03/28 04:50:03;;;;;;;13.70;7.90;;;;;;;-0.09;100.00;97651.84;106659;1256;71749;-79
2023/03/28 04:52:30;;;;;;;33.60;15.00;;;;;;;-0.05;100.00;97654.15;106667;1256;62090;-79
2023/03/28 04:54:56;;;;;;;19.80;11.80;;;;;;;-0.06;100.00;97657.11;106377;1256;62134;-79
2023/03/28 04:57:23;;;;;;;17.70;9.70;;;;;;;-0.06;100.00;97661.86;106647;1256;59949;-81
2023/03/28 04:59:49;;;;;;;36.90;15.10;;;;;;;-0.04;100.00;97664.16;106084;1256;63165;-79
2023/03/28 05:02:16;;;;;;;24.40;12.30;;;;;;;-0.05;100.00;97667.80;106247;1256;62059;-80
2023/03/28 05:04:43;;;;;;;13.30;7.40;;;;;;;-0.05;100.00;97666.64;106075;1256;60304;-80
2023/03/28 05:07:09;;;;;;;39.40;19.10;;;;;;;-0.05;100.00;97660.05;106106;1257;62048;-79
2023/03/28 05:09:36;;;;;;;19.50;9.00;;;;;;;-0.07;100.00;97658.68;106154;1257;62665;-79
2023/03/28 05:12:03;;;;;;;15.40;7.70;;;;;;;-0.06;100.00;97653.92;106169;1257;70653;-81
2023/03/28 05:14:29;;;;;;;20.90;10.80;;;;;;;-0.10;100.00;97653.33;106376;1260;71902;-80
2023/03/28 05:16:56;;;;;;;16.70;7.60;;;;;;;-0.04;100.00;97655.73;106207;1256;62035;-80
2023/03/28 05:19:23;;;;;;;16.80;10.50;;;;;;;0.01;100.00;97654.83;106387;1262;61962;-80
2023/03/28 05:21:50;;;;;;;12.00;8.00;;;;;;;0.08;100.00;97653.80;106297;1260;75362;-79
2023/03/28 05:24:17;;;;;;;11.40;6.80;;;;;;;0.14;100.00;97653.12;106480;1261;70917;-79
2023/03/28 05:26:43;;;;;;;17.80;10.30;;;;;;;0.16;100.00;97655.31;106142;1257;61991;-79
2023/03/28 05:29:10;;;;;;;16.20;7.40;;;;;;;0.18;100.00;97653.46;106133;1257;62158;-79
2023/03/28 05:31:36;;;;;;;14.10;7.70;;;;;;;0.19;100.00;97657.05;108057;1257;60302;-79
2023/03/28 05:34:02;;;;;;;13.90;6.50;;;;;;;0.17;100.00;97658.35;106907;1257;62504;-81
2023/03/28 05:36:29;;;;;;;11.50;6.10;;;;;;;0.11;100.00;97659.23;106231;1259;62160;-78
2023/03/28 05:38:56;;;;;;;8.10;5.60;;;;;;;0.02;100.00;97654.15;106178;1257;62061;-79
2023/03/28 05:41:22;;;;;;;9.30;5.80;;;;;;;-0.04;100.00;97661.59;106227;1257;62076;-79
2023/03/28 05:43:48;;;;;;;10.60;5.40;;;;;;;-0.06;100.00;97661.12;106166;1256;62137;-78
2023/03/28 05:46:15;;;;;;;10.70;6.60;;;;;;;-0.06;100.00;97664.48;106207;1256;62563;-80
2023/03/28 05:48:41;;;;;;;8.40;5.30;;;;;;;-0.01;100.00;97665.41;106295;1261;62183;-79
2023/03/28 05:51:08;;;;;;;14.60;5.90;;;;;;;0.01;100.00;97674.09;106202;1256;62073;-80
2023/03/28 05:53:34;;;;;;;19.00;8.10;;;;;;;0.13;100.00;97673.67;106073;1257;62204;-79
2023/03/28 05:56:01;;;;;;;15.10;8.70;;;;;;;0.22;100.00;97675.13;106196;1257;62173;-78
2023/03/28 05:58:28;;;;;;;11.60;7.10;;;;;;;0.25;100.00;97679.45;105858;1257;74244;-78
2023/03/28 06:00:55;;;;;;;11.50;7.00;;;;;;;0.22;100.00;97679.59;106276;1257;70403;-79
2023/03/28 06:03:21;;;;;;;11.50;6.60;;;;;;;0.16;100.00;97681.23;106579;1256;71096;-78
2023/03/28 06:05:48;;;;;;;6.20;4.00;;;;;;;0.07;100.00;97684.73;106181;1259;62175;-77
2023/03/28 06:08:14;;;;;;;12.20;6.80;;;;;;;0.00;100.00;97684.99;106252;1256;62013;-77
2023/03/28 06:10:41;;;;;;;14.30;7.00;;;;;;;-0.01;100.00;97688.16;106204;1259;62030;-79
2023/03/28 06:13:07;;;;;;;12.50;7.40;;;;;;;-0.05;100.00;97689.39;106044;1262;62028;-78
2023/03/28 06:15:34;;;;;;;13.40;6.70;;;;;;;-0.13;100.00;97694.92;106186;1256;62157;-80
2023/03/28 06:18:00;;;;;;;7.40;4.70;;;;;;;-0.16;100.00;97697.66;106912;1257;61999;-77
2023/03/28 06:20:27;;;;;;;12.30;6.30;;;;;;;-0.16;100.00;97703.05;106250;1256;62030;-79
2023/03/28 06:22:53;;;;;;;10.50;6.60;;;;;;;-0.12;100.00;97704.94;106327;1259;62165;-79
2023/03/28 06:25:20;;;;;;;11.50;5.90;;;;;;;-0.09;100.00;97704.50;106618;1256;62256;-80
2023/03/28 06:27:46;;;;;;;10.40;6.10;;;;;;;0.07;100.00;97703.54;106451;1262;62010;-79
2023/03/28 06:30:13;;;;;;;10.20;5.80;;;;;;;0.20;100.00;97708.64;106451;1257;62094;-77
2023/03/28 06:32:39;;;;;;;9.20;5.00;;;;;;;0.35;100.00;97703.90;106462;1257;62150;-78
2023/03/28 06:35:07;;;;;;;10.80;6.00;;;;;;;0.47;100.00;97708.25;106102;1256;62131;-78
2023/03/28 06:37:33;;;;;;;10.90;6.80;;;;;;;0.47;100.00;97706.43;106151;1264;69762;-79
2023/03/28 06:39:59;;;;;;;12.10;6.40;;;;;;;0.64;100.00;97703.36;106274;1260;62099;-79
2023/03/28 06:42:26;;;;;;;13.70;7.30;;;;;;;0.78;100.00;97709.10;106297;1257;62523;-78
2023/03/28 06:44:52;;;;;;;11.30;6.80;;;;;;;0.79;100.00;97711.72;106368;1256;61408;-79
2023/03/28 06:47:19;;;;;;;10.90;6.10;;;;;;;0.72;100.00;97717.66;106334;1261;61916;-79
2023/03/28 06:49:45;;;;;;;11.30;5.80;;;;;;;0.67;100.00;97721.50;106083;1256;62072;-78
2023/03/28 06:52:12;;;;;;;8.80;5.50;;;;;;;0.62;100.00;97718.69;106333;1261;62156;-77
2023/03/28 06:54:38;;;;;;;13.20;6.10;;;;;;;0.62;100.00;97727.02;106187;1259;62092;-78
2023/03/28 06:57:05;;;;;;;9.10;4.90;;;;;;;0.46;100.00;97736.31;106238;1259;62069;-79
2023/03/28 06:59:31;;;;;;;12.90;7.30;;;;;;;0.21;100.00;97733.13;106199;1257;62077;-80
2023/03/28 07:01:57;;;;;;;17.30;8.50;;;;;;;-0.13;100.00;97724.71;106139;1257;62161;-79
2023/03/28 07:04:24;;;;;;;16.00;8.40;;;;;;;-0.15;100.00;97734.39;106111;1261;62083;-78
2023/03/28 07:06:50;;;;;;;20.20;8.90;;;;;;;-0.16;100.00;97727.35;106098;1257;62498;-78
2023/03/28 07:09:17;;;;;;;29.00;11.20;;;;;;;-0.16;100.00;97732.98;106142;1260;62081;-80
2023/03/28 07:11:43;;;;;;;15.10;7.50;;;;;;;-0.11;100.00;97728.14;105856;1257;62126;-79
2023/03/28 07:14:09;;;;;;;10.50;5.80;;;;;;;0.09;100.00;97732.21;106385;1256;62026;-79
2023/03/28 07:16:36;;;;;;;12.60;6.80;;;;;;;0.26;100.00;97730.77;106213;1256;62214;-79
2023/03/28 07:19:02;;;;;;;14.40;7.30;;;;;;;0.46;100.00;97732.49;106021;1256;62254;-79
2023/03/28 07:21:29;;;;;;;9.40;6.20;;;;;;;0.78;100.00;97739.10;106245;1257;62060;-79
2023/03/28 07:23:55;;;;;;;9.20;5.30;;;;;;;0.88;100.00;97733.93;106363;1257;62576;-80
2023/03/28 07:26:22;;;;;;;8.10;6.20;;;;;;;0.85;100.00;97739.67;106163;1257;62149;-79
2023/03/28 07:28:48;;;;;;;13.80;6.30;;;;;;;0.78;100.00;97745.09;106222;1261;61978;-80
2023/03/28 07:31:15;;;;;;;15.10;6.80;;;;;;;0.72;100.00;97744.95;105941;1261;63018;-79
2023/03/28 07:33:42;;;;;;;8.80;5.70;;;;;;;0.81;100.00;97744.11;106474;1257;62014;-78
2023/03/28 07:36:13;;;;;;;13.80;7.80;;;;;;;1.24;100.00;97745.33;107236;1257;60021;-78
2023/03/28 07:38:40;;;;;;;10.00;6.10;;;;;;;1.68;99.03;97744.17;106168;1256;71904;-80
2023/03/28 07:41:06;;;;;;;14.40;8.30;;;;;;;2.11;98.01;97743.38;106262;1262;62508;-79
2023/03/28 07:43:33;;;;;;;12.40;6.10;;;;;;;2.39;98.91;97739.40;106328;1257;61955;-80
2023/03/28 07:46:05;;;;;;;18.20;8.50;;;;;;;2.14;95.32;97750.09;106393;1262;61869;-80
2023/03/28 07:48:31;;;;;;;12.20;8.00;;;;;;;2.05;97.26;97763.44;106065;1256;74149;-80
2023/03/28 07:50:59;;;;;;;7.00;4.00;;;;;;;1.58;94.92;97803.90;106042;1261;62056;-78
2023/03/28 07:53:26;;;;;;;3.90;2.60;;;;;;;-0.12;100.00;97842.67;106047;1262;73794;-78
2023/03/28 07:55:53;;;;;;;5.70;3.00;;;;;;;-26.34;79.80;78285.78;106730;1257;1001675;-78
2023/03/28 07:58:19;;;;;;;30.10;14.40;;;;;;;-128.00;-1.00;-1.00;102631;1256;1047495;-78
2023/03/28 08:00:46;;;;;;;9.20;5.60;;;;;;;-128.00;-1.00;-1.00;102401;1257;1004114;-78
2023/03/28 08:03:12;;;;;;;4.10;3.30;;;;;;;-128.00;-1.00;-1.00;101910;1262;1003138;-80
2023/03/28 08:05:39;;;;;;;6.80;3.30;;;;;;;-128.00;-1.00;-1.00;102599;1256;1004140;-80
2023/03/28 08:08:06;;;;;;;7.20;4.70;;;;;;;-128.00;-1.00;-1.00;102295;1257;1004620;-80
2023/03/28 08:10:32;;;;;;;7.60;4.50;;;;;;;-128.00;-1.00;-1.00;96639;1264;4360887;-79
2023/03/28 08:12:58;;;;;;;5.70;3.70;;;;;;;-128.00;-1.00;-1.00;102834;1260;1003157;-79
2023/03/28 08:15:25;;;;;;;8.10;4.20;;;;;;;-128.00;-1.00;-1.00;102712;1256;1002789;-79
2023/03/28 08:17:51;;;;;;;4.90;3.90;;;;;;;-128.00;-1.00;-1.00;102734;1257;1002790;-79
2023/03/28 08:20:18;;;;;;;7.90;5.60;;;;;;;-128.00;-1.00;-1.00;102764;1262;1004821;-80
2023/03/28 08:22:45;;;;;;;7.50;4.10;;;;;;;-128.00;-1.00;-1.00;102780;1262;1002754;-80
2023/03/28 08:25:12;;;;;;;12.20;4.20;;;;;;;-128.00;-1.00;-1.00;102734;1261;1005037;-80
2023/03/28 08:27:38;;;;;;;9.90;5.70;;;;;;;-128.00;-1.00;-1.00;102128;1257;1003226;-79
2023/03/28 08:30:06;;;;;;;7.40;3.80;;;;;;;-128.00;-1.00;-1.00;103521;1260;1003250;-80
2023/03/28 08:32:33;;;;;;;5.40;3.60;;;;;;;-128.00;-1.00;-1.00;101078;1258;1003037;-77
2023/03/28 08:35:04;;;;;;;5.60;4.10;;;;;;;-128.00;-1.00;-1.00;102571;1262;1004346;-79
2023/03/28 08:37:31;;;;;;;9.50;5.50;;;;;;;-128.00;-1.00;-1.00;102532;1258;1059492;-78
2023/03/28 08:39:59;;;;;;;9.80;5.20;;;;;;;-128.00;-1.00;-1.00;102443;1261;1006033;-80
2023/03/28 08:42:35;;;;;;;7.90;6.20;;;;;;;-128.00;-1.00;-1.00;102423;1258;1004690;-78
2023/03/28 08:45:07;;;;;;;8.00;4.80;;;;;;;-128.00;-1.00;-1.00;102398;1260;1065512;-79
2023/03/28 08:47:42;;;;;;;8.10;4.70;;;;;;;-128.00;-1.00;-1.00;102322;1260;1062102;-81
2023/03/28 08:50:18;;;;;;;9.00;5.20;;;;;;;-128.00;-1.00;-1.00;102278;1257;1058918;-82
2023/03/28 08:52:45;;;;;;;6.50;4.50;;;;;;;-128.00;-1.00;-1.00;102710;1267;1046393;-82
2023/03/28 08:55:28;;;;;;;7.80;5.20;;;;;;;-128.00;-1.00;-1.00;102988;1257;1004413;-79
2023/03/28 08:57:55;;;;;;;7.70;4.30;;;;;;;-128.00;-1.00;-1.00;103035;1262;1062813;-79
2023/03/28 09:00:29;;;;;;;7.10;4.60;;;;;;;-128.00;-1.00;-1.00;102955;1262;1003811;-82
2023/03/28 09:02:55;;;;;;;6.80;4.00;;;;;;;-128.00;-1.00;-1.00;103049;1256;1059428;-78
2023/03/28 09:05:34;;;;;;;6.80;3.70;;;;;;;-128.00;-1.00;-1.00;102980;1257;1003797;-82
2023/03/28 09:08:23;;;;;;;11.80;6.30;;;;;;;-128.00;-1.00;-1.00;104621;1260;1046743;-78
2023/03/28 09:10:52;;;;;;;6.70;4.40;;;;;;;-128.00;-1.00;-1.00;103051;1256;1063549;-82
2023/03/28 09:13:51;;;;;;;7.30;4.10;;;;;;;-128.00;-1.00;-1.00;102322;1257;1060602;-82
2023/03/28 09:16:33;;;;;;;6.30;4.40;;;;;;;-128.00;-1.00;-1.00;102347;1262;1060602;-78
2023/03/28 09:19:32;;;;;;;6.40;4.10;;;;;;;-128.00;-1.00;-1.00;102349;1262;1045818;-81
2023/03/28 09:22:26;;;;;;;7.00;4.90;;;;;;;-128.00;-1.00;-1.00;102930;1259;1046564;-79
2023/03/28 09:25:07;;;;;;;6.80;4.40;;;;;;;-128.00;-1.00;-1.00;103426;1262;1062281;-81
2023/03/28 09:27:36;;;;;;;19.20;8.20;;;;;;;-128.00;-1.00;-1.00;103174;1262;1058620;-76
2023/03/28 09:30:17;;;;;;;14.80;7.50;;;;;;;-128.00;-1.00;-1.00;102522;1262;1061008;-76
2023/03/28 09:32:44;;;;;;;11.60;6.70;;;;;;;-128.00;-1.00;-1.00;102173;1264;1047269;-80
2023/03/28 09:35:14;;;;;;;8.60;5.80;;;;;;;-128.00;-1.00;-1.00;102271;1263;1005410;-80
2023/03/28 09:37:42;;;;;;;4.60;4.00;;;;;;;-128.00;-1.00;-1.00;102578;1260;1061889;-80
2023/03/28 09:40:13;;;;;;;8.20;5.10;;;;;;;-128.00;-1.00;-1.00;102579;1260;1003922;-80
2023/03/28 09:43:08;;;;;;;7.80;6.00;;;;;;;-128.00;-1.00;-1.00;102325;1256;1058893;-76
2023/03/28 09:45:34;;;;;;;6.90;4.50;;;;;;;-128.00;-1.00;-1.00;102630;1262;1048211;-76
2023/03/28 09:48:03;;;;;;;5.40;3.40;;;;;;;-128.00;-1.00;-1.00;102674;1262;1004670;-76
2023/03/28 09:50:30;;;;;;;5.50;4.40;;;;;;;-128.00;-1.00;-1.00;103608;1259;1062650;-76
2023/03/28 09:52:57;;;;;;;6.90;3.40;;;;;;;-128.00;-1.00;-1.00;102656;1258;1003720;-80
2023/03/28 09:55:25;;;;;;;3.70;3.10;;;;;;;-128.00;-1.00;-1.00;102568;1262;1004653;-76
2023/03/28 09:58:08;;;;;;;4.40;3.30;;;;;;;-128.00;-1.00;-1.00;102324;1263;1045713;-76
2023/03/28 10:00:36;;;;;;;5.80;4.00;;;;;;;-128.00;-1.00;-1.00;102462;1259;1048246;-80
2023/03/28 10:03:03;;;;;;;7.50;3.80;;;;;;;-128.00;-1.00;-1.00;104535;1260;1004777;-79
2023/03/28 10:05:38;;;;;;;6.10;4.10;;;;;;;-128.00;-1.00;-1.00;102637;1262;1004800;-76
2023/03/28 10:08:23;;;;;;;8.60;6.60;;;;;;;-128.00;-1.00;-1.00;104238;1263;1059346;-77
2023/03/28 10:10:55;;;;;;;5.40;4.10;;;;;;;-128.00;-1.00;-1.00;102405;1262;1048601;-76
2023/03/28 10:13:22;;;;;;;15.60;11.10;;;;;;;-128.00;-1.00;-1.00;102602;1258;1048079;-79
2023/03/28 10:15:49;;;;;;;6.70;4.20;;;;;;;-128.00;-1.00;-1.00;102572;1257;1005343;-79
2023/03/28 10:18:17;;;;;;;10.60;4.00;;;;;;;-128.00;-1.00;-1.00;102910;1257;1004465;-79
2023/03/28 10:20:44;;;;;;;6.70;4.80;;;;;;;-128.00;-1.00;-1.00;103726;1262;1005497;-79
2023/03/28 10:23:11;;;;;;;10.70;6.20;;;;;;;-128.00;-1.00;-1.00;102620;1258;1003867;-79
2023/03/28 10:25:43;;;;;;;9.50;5.50;;;;;;;-128.00;-1.00;-1.00;102790;1259;1004552;-79
2023/03/28 10:28:16;;;;;;;8.90;6.10;;;;;;;-128.00;-1.00;-1.00;102564;1263;1064586;-77
2023/03/28 10:30:42;;;;;;;9.20;5.00;;;;;;;-128.00;-1.00;-1.00;102619;1260;1059438;-77
2023/03/28 10:33:15;;;;;;;8.10;4.40;;;;;;;-128.00;-1.00;-1.00;104421;1258;1003487;-79
2023/03/28 10:35:46;;;;;;;9.30;5.40;;;;;;;-128.00;-1.00;-1.00;104073;1262;1046798;-79
2023/03/28 10:38:17;;;;;;;6.30;4.20;;;;;;;-128.00;-1.00;-1.00;104957;1262;1046866;-77
2023/03/28 10:40:52;;;;;;;8.80;5.80;;;;;;;-128.00;-1.00;-1.00;104656;1257;1062092;-77
2023/03/28 10:43:18;;;;;;;10.50;5.00;;;;;;;-128.00;-1.00;-1.00;105048;1258;1057920;-80
2023/03/28 10:45:46;;;;;;;6.10;4.10;;;;;;;-128.00;-1.00;-1.00;105035;1257;1004370;-79
2023/03/28 10:48:17;;;;;;;5.60;3.10;;;;;;;-128.00;-1.00;-1.00;104913;1262;1004728;-79
2023/03/28 10:50:47;;;;;;;5.50;3.10;;;;;;;-128.00;-1.00;-1.00;104925;1263;1047847;-80
2023/03/28 10:53:42;;;;;;;4.60;2.90;;;;;;;-128.00;-1.00;-1.00;104568;1257;1062190;-81
2023/03/28 10:56:37;;;;;;;4.70;3.40;;;;;;;-128.00;-1.00;-1.00;102680;1257;1058861;-77
2023/03/28 10:59:48;;;;;;;5.70;3.40;;;;;;;-128.00;-1.00;-1.00;102645;1261;1061549;-82
2023/03/28 11:02:36;;;;;;;6.30;3.70;;;;;;;-128.00;-1.00;-1.00;102915;1261;1045515;-78
2023/03/28 11:05:33;;;;;;;5.50;3.00;;;;;;;-128.00;-1.00;-1.00;102871;1258;1047248;-78
2023/03/28 11:08:03;;;;;;;5.30;3.10;;;;;;;-128.00;-1.00;-1.00;102607;1262;1061744;-79
2023/03/28 11:10:55;;;;;;;4.90;3.40;;;;;;;-128.00;-1.00;-1.00;104220;1257;1058593;-79
2023/03/28 11:13:47;;;;;;;6.20;3.30;;;;;;;-128.00;-1.00;-1.00;104042;1262;1059164;-79
2023/03/28 11:16:13;;;;;;;7.80;3.10;;;;;;;-128.00;-1.00;-1.00;102541;1261;1047110;-77
2023/03/28 11:19:05;;;;;;;5.60;3.30;;;;;;;-128.00;-1.00;-1.00;102538;1261;1004958;-77
2023/03/28 11:21:52;;;;;;;5.70;3.20;;;;;;;-128.00;-1.00;-1.00;102804;1263;1062575;-77
2023/03/28 11:25:03;;;;;;;5.60;2.80;;;;;;;-128.00;-1.00;-1.00;103264;1257;1060097;-79